Time;durP1;ratioP1;P1;durP2;ratioP2;P2;SDS_P1;SDS_P2;PMS_P1;PMS_P2;Temp;Humidity;BMP_temperature;BMP_pressure;BME280_temperature;BME280_humidity;BME280_pressure;Samples;Min_cycle;Max_cycle;Signal;HPM_P1;HPM_P2
2023/08/06 00:01:53;;;;;;;0.20;0.20;;;14.80;99.90;;;;;;4812572;29;20074;-84
2023/08/06 00:04:19;;;;;;;0.20;0.20;;;14.90;99.90;;;;;;4819223;29;20121;-83
2023/08/06 00:06:45;;;;;;;0.20;0.20;;;14.60;99.90;;;;;;4818747;29;20054;-82
2023/08/06 00:09:10;;;;;;;0.10;0.10;;;14.70;99.90;;;;;;4813226;29;20067;-82
2023/08/06 00:11:36;;;;;;;0.20;0.20;;;14.60;99.90;;;;;;4820344;29;20484;-82
2023/08/06 00:14:02;;;;;;;0.20;0.20;;;14.90;99.90;;;;;;4818012;29;20050;-82
2023/08/06 00:16:27;;;;;;;0.20;0.20;;;14.80;99.90;;;;;;4820688;29;20085;-83
2023/08/06 00:18:53;;;;;;;0.20;0.20;;;14.70;99.90;;;;;;4803261;29;20042;-83
2023/08/06 00:21:18;;;;;;;0.17;0.17;;;14.70;99.90;;;;;;4818930;29;20197;-82
2023/08/06 00:23:44;;;;;;;0.10;0.10;;;14.90;99.90;;;;;;4817211;29;20062;-82
2023/08/06 00:26:10;;;;;;;0.10;0.10;;;14.90;99.90;;;;;;4819894;29;20137;-83
2023/08/06 00:28:35;;;;;;;0.20;0.20;;;14.70;99.90;;;;;;4819404;29;20686;-83
2023/08/06 00:31:01;;;;;;;0.10;0.10;;;14.70;99.90;;;;;;4817228;29;20047;-82
2023/08/06 00:33:28;;;;;;;0.10;0.10;;;14.90;99.90;;;;;;4818537;29;20049;-81
2023/08/06 00:35:54;;;;;;;0.10;0.10;;;14.80;99.90;;;;;;4817714;29;20833;-82
2023/08/06 00:38:20;;;;;;;0.20;0.20;;;14.70;99.90;;;;;;4825409;29;20081;-82
2023/08/06 00:40:45;;;;;;;0.20;0.20;;;14.70;99.90;;;;;;4824488;29;20722;-82
2023/08/06 00:43:11;;;;;;;0.17;0.17;;;14.70;99.90;;;;;;4807588;29;20054;-82
2023/08/06 00:45:37;;;;;;;0.10;0.10;;;14.80;99.90;;;;;;4824387;29;20046;-82
2023/08/06 00:48:05;;;;;;;0.20;0.20;;;14.70;99.90;;;;;;4823885;29;20102;-82
2023/08/06 00:50:31;;;;;;;0.20;0.20;;;14.80;99.90;;;;;;4819905;29;20046;-82
2023/08/06 00:52:57;;;;;;;0.15;0.15;;;14.70;99.90;;;;;;4824617;29;20069;-82
2023/08/06 00:55:23;;;;;;;0.20;0.20;;;14.90;99.90;;;;;;4823837;29;20377;-82
2023/08/06 00:57:51;;;;;;;0.20;0.20;;;14.80;99.90;;;;;;4823934;29;20054;-82
2023/08/06 01:00:16;;;;;;;0.20;0.20;;;14.90;99.90;;;;;;4817093;29;20042;-82
2023/08/06 01:02:42;;;;;;;0.10;0.10;;;14.80;99.90;;;;;;4826035;29;20502;-82
2023/08/06 01:05:08;;;;;;;0.20;0.20;;;14.70;99.90;;;;;;4824376;29;20053;-83
2023/08/06 01:08:01;;;;;;;0.20;0.20;;;14.80;99.90;;;;;;4823834;29;20050;-83
2023/08/06 01:10:33;;;;;;;0.20;0.20;;;14.70;99.90;;;;;;4823914;29;20694;-83
2023/08/06 01:13:08;;;;;;;0.10;0.10;;;14.70;99.90;;;;;;4824327;29;20381;-83
2023/08/06 01:15:43;;;;;;;0.20;0.20;;;14.70;99.90;;;;;;4822824;29;20054;-83
2023/08/06 01:18:10;;;;;;;0.20;0.20;;;14.70;99.90;;;;;;4825306;29;20095;-83
2023/08/06 01:20:35;;;;;;;0.20;0.20;;;14.70;99.90;;;;;;4825467;29;20526;-82
2023/08/06 01:23:01;;;;;;;0.20;0.20;;;14.80;99.90;;;;;;4826645;29;20045;-83
2023/08/06 01:25:34;;;;;;;0.20;0.20;;;14.80;99.90;;;;;;4822097;29;20053;-83
2023/08/06 01:28:11;;;;;;;0.20;0.20;;;14.70;99.90;;;;;;4823333;29;20106;-82
2023/08/06 01:30:41;;;;;;;0.15;0.15;;;14.80;99.90;;;;;;4821357;29;20131;-82
2023/08/06 01:33:14;;;;;;;0.20;0.20;;;14.70;99.90;;;;;;4818943;29;20050;-82
2023/08/06 01:35:40;;;;;;;0.20;0.20;;;14.70;99.90;;;;;;4825522;29;20115;-83
2023/08/06 01:38:06;;;;;;;0.20;0.20;;;14.60;99.90;;;;;;4825622;29;20065;-83
2023/08/06 01:40:32;;;;;;;0.20;0.20;;;14.80;99.90;;;;;;4823478;29;20652;-82
2023/08/06 01:42:58;;;;;;;0.20;0.20;;;14.60;99.90;;;;;;4824498;29;20133;-83
2023/08/06 01:45:24;;;;;;;0.20;0.20;;;14.70;99.90;;;;;;4822194;29;20129;-83
2023/08/06 01:47:49;;;;;;;0.20;0.20;;;14.80;99.90;;;;;;4822141;29;20055;-83
2023/08/06 01:50:15;;;;;;;0.20;0.20;;;14.80;99.90;;;;;;4820634;29;20440;-83
2023/08/06 01:52:41;;;;;;;0.20;0.20;;;14.70;99.90;;;;;;4820731;29;20092;-83
2023/08/06 01:55:07;;;;;;;0.20;0.20;;;14.60;99.90;;;;;;4818391;29;20065;-83
2023/08/06 01:57:32;;;;;;;0.10;0.10;;;14.70;99.90;;;;;;4819741;29;20060;-83
2023/08/06 01:59:58;;;;;;;0.10;0.10;;;14.70;99.90;;;;;;4821735;29;20053;-84
2023/08/06 02:02:24;;;;;;;0.20;0.20;;;14.80;99.90;;;;;;4821099;29;20042;-83
2023/08/06 02:04:49;;;;;;;0.20;0.20;;;14.70;99.90;;;;;;4820809;29;20069;-83
2023/08/06 02:07:15;;;;;;;0.20;0.20;;;14.80;99.90;;;;;;4820118;29;20054;-83
2023/08/06 02:09:41;;;;;;;0.20;0.20;;;14.70;99.90;;;;;;4810709;29;20146;-83
2023/08/06 02:12:07;;;;;;;0.17;0.17;;;14.80;99.90;;;;;;4818936;29;20053;-83
2023/08/06 02:14:33;;;;;;;0.20;0.20;;;14.70;99.90;;;;;;4819124;29;20050;-83
2023/08/06 02:16:58;;;;;;;0.20;0.20;;;14.80;99.90;;;;;;4813085;29;20114;-83
2023/08/06 02:19:24;;;;;;;0.10;0.10;;;14.70;99.90;;;;;;4821425;29;20085;-83
2023/08/06 02:21:50;;;;;;;0.20;0.20;;;14.80;99.90;;;;;;4822332;29;20046;-83
2023/08/06 02:24:15;;;;;;;0.20;0.20;;;14.80;99.90;;;;;;4818698;29;20556;-83
2023/08/06 02:26:41;;;;;;;0.20;0.20;;;14.90;99.90;;;;;;4820808;29;20046;-82
2023/08/06 02:29:07;;;;;;;0.10;0.10;;;14.80;99.90;;;;;;4820020;29;20054;-83
2023/08/06 02:31:32;;;;;;;0.20;0.20;;;14.70;99.90;;;;;;4822741;29;20042;-83
2023/08/06 02:33:58;;;;;;;0.38;0.32;;;14.90;99.90;;;;;;4818577;29;20125;-83
2023/08/06 02:36:24;;;;;;;0.10;0.10;;;14.90;99.90;;;;;;4819830;29;20555;-83
2023/08/06 02:38:50;;;;;;;0.13;0.13;;;14.80;99.90;;;;;;4819861;29;20160;-84
2023/08/06 02:41:15;;;;;;;0.20;0.20;;;14.90;99.90;;;;;;4821539;29;20053;-83
2023/08/06 02:43:41;;;;;;;0.20;0.20;;;14.90;99.90;;;;;;4817679;29;20050;-84
2023/08/06 02:46:07;;;;;;;0.20;0.20;;;14.90;99.90;;;;;;4819175;29;20129;-83
2023/08/06 02:48:32;;;;;;;0.15;0.15;;;14.90;99.90;;;;;;4819406;29;20826;-83
2023/08/06 02:50:59;;;;;;;0.20;0.20;;;14.70;99.90;;;;;;4819771;29;20574;-83
2023/08/06 02:53:25;;;;;;;0.17;0.17;;;14.90;99.90;;;;;;4804274;29;20053;-83
2023/08/06 02:55:51;;;;;;;0.10;0.10;;;14.90;99.90;;;;;;4802537;29;21645;-83
2023/08/06 02:58:21;;;;;;;0.20;0.20;;;14.80;99.90;;;;;;4820810;29;20449;-83
2023/08/06 03:01:02;;;;;;;0.20;0.20;;;14.90;99.90;;;;;;4820103;29;20046;-83
2023/08/06 03:03:31;;;;;;;0.10;0.10;;;14.90;99.90;;;;;;4820800;29;20141;-84
2023/08/06 03:05:57;;;;;;;0.20;0.20;;;15.00;99.90;;;;;;4821134;29;20043;-83
2023/08/06 03:08:23;;;;;;;0.20;0.20;;;14.90;99.90;;;;;;4804645;29;20054;-83
2023/08/06 03:10:50;;;;;;;0.20;0.20;;;14.80;99.90;;;;;;4819463;29;20054;-83
2023/08/06 03:13:17;;;;;;;0.10;0.10;;;15.00;99.90;;;;;;4820840;29;20457;-83
2023/08/06 03:15:43;;;;;;;0.20;0.20;;;15.00;99.90;;;;;;4817695;29;20050;-83
2023/08/06 03:18:08;;;;;;;0.20;0.20;;;14.90;99.90;;;;;;4817081;29;20398;-83
2023/08/06 03:20:34;;;;;;;0.15;0.15;;;14.90;99.90;;;;;;4821936;29;20117;-84
2023/08/06 03:23:00;;;;;;;0.10;0.10;;;15.00;99.90;;;;;;4821122;29;20380;-83
2023/08/06 03:25:25;;;;;;;0.15;0.15;;;14.90;99.90;;;;;;4818933;29;20053;-83
2023/08/06 03:27:51;;;;;;;0.17;0.17;;;14.80;99.90;;;;;;4820043;29;20093;-83
2023/08/06 03:30:17;;;;;;;0.10;0.10;;;14.90;99.90;;;;;;4820459;29;20551;-83
2023/08/06 03:32:42;;;;;;;0.20;0.20;;;14.80;99.90;;;;;;4814510;29;20050;-85
2023/08/06 03:35:08;;;;;;;0.10;0.10;;;14.80;99.90;;;;;;4818660;29;20072;-83
2023/08/06 03:37:34;;;;;;;0.10;0.10;;;14.90;99.90;;;;;;4819918;29;20065;-83
2023/08/06 03:39:59;;;;;;;0.10;0.10;;;14.80;99.90;;;;;;4819497;29;20069;-83
2023/08/06 03:42:25;;;;;;;0.20;0.20;;;14.80;99.90;;;;;;4818970;29;20046;-83
2023/08/06 03:44:51;;;;;;;0.20;0.20;;;14.80;99.90;;;;;;4804453;29;20570;-83
2023/08/06 03:47:16;;;;;;;0.10;0.10;;;15.00;99.90;;;;;;4819453;29;20058;-83
2023/08/06 03:49:43;;;;;;;0.20;0.20;;;14.90;99.90;;;;;;4819368;29;20137;-83
2023/08/06 03:52:08;;;;;;;0.10;0.10;;;14.90;99.90;;;;;;4803898;29;20054;-83
2023/08/06 03:54:34;;;;;;;0.20;0.20;;;15.00;99.90;;;;;;4819304;29;20046;-84
2023/08/06 03:57:00;;;;;;;0.20;0.20;;;14.90;99.90;;;;;;4818352;29;20052;-83
2023/08/06 03:59:26;;;;;;;0.20;0.20;;;14.90;99.90;;;;;;4818431;29;20046;-83
2023/08/06 04:01:51;;;;;;;0.20;0.20;;;14.80;99.90;;;;;;4821304;29;20082;-84
2023/08/06 04:04:17;;;;;;;0.10;0.10;;;14.80;99.90;;;;;;4822435;29;20039;-83
2023/08/06 04:06:42;;;;;;;0.13;0.13;;;14.80;99.90;;;;;;4820015;29;20046;-83
2023/08/06 04:09:08;;;;;;;0.20;0.20;;;14.90;99.90;;;;;;4819940;29;20407;-84
2023/08/06 04:11:34;;;;;;;0.20;0.20;;;14.80;99.90;;;;;;4816160;29;20061;-83
2023/08/06 04:13:59;;;;;;;0.20;0.20;;;14.80;99.90;;;;;;4812314;29;20042;-83
2023/08/06 04:16:26;;;;;;;0.10;0.10;;;14.80;99.90;;;;;;4819921;29;20398;-83
2023/08/06 04:18:53;;;;;;;0.20;0.20;;;14.90;99.90;;;;;;4816272;29;20042;-84
2023/08/06 04:21:19;;;;;;;0.20;0.20;;;14.80;99.90;;;;;;4818665;29;20042;-82
2023/08/06 04:23:45;;;;;;;0.17;0.17;;;14.90;99.90;;;;;;4817819;29;20057;-83
2023/08/06 04:26:10;;;;;;;0.20;0.20;;;14.80;99.90;;;;;;4813164;29;21333;-84
2023/08/06 04:28:36;;;;;;;0.10;0.10;;;14.90;99.90;;;;;;4816953;29;20077;-84
2023/08/06 04:31:02;;;;;;;0.20;0.20;;;14.80;99.90;;;;;;4817106;29;20129;-83
2023/08/06 04:33:27;;;;;;;0.20;0.20;;;14.80;99.90;;;;;;4816887;29;20099;-83
2023/08/06 04:35:56;;;;;;;0.20;0.20;;;14.90;99.90;;;;;;4819132;29;20100;-83
2023/08/06 04:38:24;;;;;;;0.20;0.20;;;14.90;99.90;;;;;;4820332;29;20069;-83
2023/08/06 04:40:50;;;;;;;0.20;0.20;;;14.90;99.90;;;;;;4817081;29;20064;-83
2023/08/06 04:43:16;;;;;;;0.20;0.20;;;14.80;99.90;;;;;;4817530;29;20495;-83
2023/08/06 04:45:53;;;;;;;0.10;0.10;;;14.90;99.90;;;;;;4819627;29;20077;-84
2023/08/06 04:48:19;;;;;;;0.20;0.20;;;14.80;99.90;;;;;;4818578;29;20067;-84
2023/08/06 04:50:45;;;;;;;0.20;0.20;;;14.90;99.90;;;;;;4816702;29;20066;-83
2023/08/06 04:53:11;;;;;;;0.20;0.20;;;14.90;99.90;;;;;;4818583;29;20050;-84
2023/08/06 04:55:37;;;;;;;0.20;0.20;;;14.90;99.90;;;;;;4802518;29;20623;-83
2023/08/06 04:58:03;;;;;;;0.20;0.20;;;14.80;99.90;;;;;;4802578;29;20054;-83
2023/08/06 05:00:28;;;;;;;0.20;0.20;;;14.80;99.90;;;;;;4800226;29;20519;-83
2023/08/06 05:02:54;;;;;;;0.10;0.10;;;14.90;99.90;;;;;;4813588;29;20046;-84
2023/08/06 05:05:20;;;;;;;0.20;0.20;;;15.00;99.90;;;;;;4817992;29;20046;-84
2023/08/06 05:07:49;;;;;;;0.20;0.20;;;15.00;99.90;;;;;;4818763;29;20050;-83
2023/08/06 05:10:15;;;;;;;0.20;0.20;;;14.80;99.90;;;;;;4812597;29;20107;-83
2023/08/06 05:12:41;;;;;;;0.20;0.20;;;14.90;99.90;;;;;;4817879;29;20545;-83
2023/08/06 05:15:07;;;;;;;0.10;0.10;;;14.80;99.90;;;;;;4817182;29;20118;-83
2023/08/06 05:17:33;;;;;;;0.17;0.17;;;14.80;99.90;;;;;;4817894;29;20057;-83
2023/08/06 05:19:59;;;;;;;0.10;0.10;;;14.80;99.90;;;;;;4814375;29;20058;-83
2023/08/06 05:22:25;;;;;;;0.20;0.20;;;14.90;99.90;;;;;;4820118;29;20050;-83
2023/08/06 05:24:51;;;;;;;0.10;0.10;;;14.80;99.90;;;;;;4819425;29;20412;-83
2023/08/06 05:27:18;;;;;;;0.20;0.20;;;14.80;99.90;;;;;;4821051;29;20547;-83
2023/08/06 05:29:44;;;;;;;0.20;0.20;;;14.80;99.90;;;;;;4821562;29;20046;-83
2023/08/06 05:32:10;;;;;;;0.10;0.10;;;14.80;99.90;;;;;;4820460;29;20046;-83
2023/08/06 05:34:36;;;;;;;0.20;0.20;;;14.80;99.90;;;;;;4820039;29;20575;-83
2023/08/06 05:37:02;;;;;;;0.20;0.20;;;14.90;99.90;;;;;;4804435;29;20062;-83
2023/08/06 05:39:28;;;;;;;0.20;0.20;;;14.80;99.90;;;;;;4818622;29;20069;-83
2023/08/06 05:41:55;;;;;;;0.10;0.10;;;14.80;99.90;;;;;;4819368;29;20054;-83
2023/08/06 05:44:21;;;;;;;0.10;0.10;;;14.80;99.90;;;;;;4821022;29;20461;-84
2023/08/06 05:46:47;;;;;;;0.20;0.20;;;14.90;99.90;;;;;;4821968;29;20133;-84
2023/08/06 05:49:13;;;;;;;0.20;0.20;;;14.90;99.90;;;;;;4820482;29;20129;-83
2023/08/06 05:51:39;;;;;;;0.20;0.20;;;15.00;99.90;;;;;;4821386;29;20065;-83
2023/08/06 05:54:05;;;;;;;0.20;0.20;;;14.90;99.90;;;;;;4817961;29;21620;-84
2023/08/06 05:56:31;;;;;;;0.20;0.20;;;15.10;99.90;;;;;;4820757;29;20058;-83
2023/08/06 05:58:56;;;;;;;0.20;0.20;;;15.00;99.90;;;;;;4819094;29;20095;-83
2023/08/06 06:01:23;;;;;;;0.20;0.20;;;15.20;99.90;;;;;;4822426;29;20046;-84
2023/08/06 06:03:48;;;;;;;0.13;0.13;;;15.20;99.90;;;;;;4820235;29;20563;-83
2023/08/06 06:06:14;;;;;;;0.20;0.20;;;15.20;99.90;;;;;;4820534;29;20038;-83
2023/08/06 06:08:40;;;;;;;0.10;0.10;;;15.20;99.90;;;;;;4820417;29;20090;-83
2023/08/06 06:11:05;;;;;;;0.20;0.20;;;15.40;99.90;;;;;;4819720;29;20058;-82
2023/08/06 06:13:31;;;;;;;0.10;0.10;;;15.40;99.90;;;;;;4821642;29;20138;-83
2023/08/06 06:15:57;;;;;;;0.17;0.17;;;15.30;99.90;;;;;;4821345;29;20560;-83
2023/08/06 06:18:23;;;;;;;0.20;0.20;;;15.40;99.90;;;;;;4820853;29;20038;-82
2023/08/06 06:20:48;;;;;;;0.20;0.20;;;15.50;99.90;;;;;;4812761;29;20050;-83
2023/08/06 06:23:14;;;;;;;0.10;0.10;;;15.60;99.90;;;;;;4822387;29;20038;-83
2023/08/06 06:25:46;;;;;;;0.10;0.10;;;15.60;99.90;;;;;;4819044;29;20061;-83
2023/08/06 06:28:12;;;;;;;0.20;0.20;;;15.60;99.90;;;;;;4820470;29;20070;-83
2023/08/06 06:30:38;;;;;;;0.40;0.40;;;15.60;99.90;;;;;;4819387;29;20522;-83
2023/08/06 06:33:03;;;;;;;0.20;0.20;;;15.80;99.90;;;;;;4819247;29;20134;-83
2023/08/06 06:35:29;;;;;;;0.20;0.20;;;15.70;99.90;;;;;;4815445;29;20073;-83
2023/08/06 06:37:55;;;;;;;0.20;0.20;;;15.70;99.90;;;;;;4820338;29;20072;-84
2023/08/06 06:40:20;;;;;;;0.20;0.20;;;16.00;99.90;;;;;;4803756;29;20058;-84
2023/08/06 06:42:46;;;;;;;0.20;0.20;;;15.80;99.90;;;;;;4819009;29;20058;-83
2023/08/06 06:45:12;;;;;;;0.10;0.10;;;15.80;99.90;;;;;;4820362;29;20163;-84
2023/08/06 06:47:37;;;;;;;0.20;0.20;;;16.00;99.90;;;;;;4820693;29;20046;-84
2023/08/06 06:50:04;;;;;;;0.20;0.20;;;15.90;99.90;;;;;;4818375;29;20057;-84
2023/08/06 06:52:30;;;;;;;0.20;0.20;;;15.90;99.90;;;;;;4818680;29;20046;-84
2023/08/06 06:54:55;;;;;;;0.20;0.20;;;16.00;99.90;;;;;;4818827;29;20046;-83
2023/08/06 06:57:21;;;;;;;0.20;0.20;;;16.10;99.90;;;;;;4817989;29;20085;-83
2023/08/06 06:59:47;;;;;;;0.20;0.20;;;16.00;99.90;;;;;;4817683;29;20085;-84
2023/08/06 07:02:12;;;;;;;0.20;0.20;;;16.20;99.90;;;;;;4820793;29;20095;-83
2023/08/06 07:04:38;;;;;;;0.20;0.20;;;16.10;99.90;;;;;;4819890;29;20078;-83
2023/08/06 07:07:04;;;;;;;0.20;0.20;;;16.20;99.90;;;;;;4818073;29;20647;-84
2023/08/06 07:09:29;;;;;;;0.20;0.20;;;16.20;99.90;;;;;;4817901;29;20137;-83
2023/08/06 07:11:55;;;;;;;0.20;0.20;;;16.30;99.90;;;;;;4815680;29;20062;-83
2023/08/06 07:14:21;;;;;;;0.10;0.10;;;16.40;99.90;;;;;;4820502;29;20046;-83
2023/08/06 07:16:46;;;;;;;0.20;0.20;;;16.40;99.90;;;;;;4817442;29;20046;-83
2023/08/06 07:19:12;;;;;;;0.20;0.20;;;16.50;99.90;;;;;;4817190;29;20138;-83
2023/08/06 07:21:37;;;;;;;0.20;0.20;;;16.60;99.90;;;;;;4820079;29;20427;-83
2023/08/06 07:24:03;;;;;;;0.20;0.20;;;16.50;99.90;;;;;;4818525;29;20048;-83
2023/08/06 07:26:29;;;;;;;0.20;0.20;;;16.50;99.90;;;;;;4818815;29;20050;-83
2023/08/06 07:28:55;;;;;;;0.20;0.20;;;16.70;99.90;;;;;;4814716;29;20042;-83
2023/08/06 07:31:20;;;;;;;0.10;0.10;;;16.60;99.90;;;;;;4820897;29;20415;-84
2023/08/06 07:33:46;;;;;;;0.20;0.20;;;16.80;99.90;;;;;;4818899;29;20133;-83
2023/08/06 07:36:13;;;;;;;0.20;0.20;;;16.80;99.90;;;;;;4821820;29;20041;-83
2023/08/06 07:38:40;;;;;;;0.15;0.15;;;16.70;99.90;;;;;;4817574;29;20163;-82
2023/08/06 07:41:06;;;;;;;0.20;0.20;;;16.70;99.90;;;;;;4804165;29;20057;-83
2023/08/06 07:43:31;;;;;;;0.20;0.20;;;16.80;99.90;;;;;;4818359;29;20046;-83
2023/08/06 07:46:01;;;;;;;0.13;0.13;;;16.70;99.90;;;;;;4817690;29;20053;-82
2023/08/06 07:48:27;;;;;;;0.15;0.15;;;16.90;99.90;;;;;;4820339;29;20551;-82
2023/08/06 07:50:57;;;;;;;0.20;0.20;;;16.80;99.90;;;;;;4817566;29;20407;-83
2023/08/06 07:53:26;;;;;;;0.20;0.20;;;16.90;99.90;;;;;;4819066;29;20054;-83
2023/08/06 07:55:52;;;;;;;0.20;0.20;;;16.90;99.90;;;;;;4820800;29;20058;-83
2023/08/06 07:58:19;;;;;;;0.10;0.10;;;16.90;99.90;;;;;;4817169;29;20050;-83
2023/08/06 08:00:45;;;;;;;0.20;0.20;;;16.90;99.90;;;;;;4815064;29;20081;-83
2023/08/06 08:03:15;;;;;;;0.20;0.20;;;16.90;99.90;;;;;;4820926;29;20086;-83
2023/08/06 08:05:42;;;;;;;0.20;0.20;;;17.00;99.90;;;;;;4823107;29;20042;-83
2023/08/06 08:08:08;;;;;;;0.20;0.20;;;17.00;99.90;;;;;;4819059;29;20062;-83
2023/08/06 08:10:34;;;;;;;0.20;0.20;;;17.00;99.90;;;;;;4818567;29;20108;-85
2023/08/06 08:13:01;;;;;;;0.10;0.10;;;17.00;99.90;;;;;;4817706;29;20057;-84
2023/08/06 08:15:28;;;;;;;0.20;0.20;;;17.10;99.90;;;;;;4819526;29;20049;-86
2023/08/06 08:17:54;;;;;;;0.20;0.20;;;17.10;99.90;;;;;;4816795;29;20119;-85
2023/08/06 08:20:20;;;;;;;0.13;0.13;;;17.10;99.90;;;;;;4813378;29;20724;-83
2023/08/06 08:22:46;;;;;;;0.20;0.20;;;17.20;99.90;;;;;;4819578;29;20142;-83
2023/08/06 08:25:12;;;;;;;0.20;0.20;;;17.20;99.90;;;;;;4817937;29;20129;-84
2023/08/06 08:27:38;;;;;;;0.20;0.20;;;17.20;99.90;;;;;;4818178;29;20061;-82
2023/08/06 08:30:05;;;;;;;0.20;0.20;;;17.30;99.90;;;;;;4817562;29;20046;-82
2023/08/06 08:32:30;;;;;;;0.20;0.20;;;17.30;99.90;;;;;;4820703;29;20089;-83
2023/08/06 08:34:56;;;;;;;0.20;0.20;;;17.30;99.90;;;;;;4819129;29;20077;-83
2023/08/06 08:37:23;;;;;;;0.20;0.20;;;17.50;99.90;;;;;;4804729;29;20054;-82
2023/08/06 08:39:49;;;;;;;0.20;0.20;;;17.50;99.90;;;;;;4797544;29;20129;-81
2023/08/06 08:42:15;;;;;;;0.20;0.20;;;17.60;99.90;;;;;;4806816;29;20129;-82
2023/08/06 08:44:42;;;;;;;0.20;0.20;;;17.60;99.90;;;;;;4818932;29;20498;-83
2023/08/06 08:47:09;;;;;;;0.20;0.20;;;17.60;99.90;;;;;;4816038;29;20065;-80
2023/08/06 08:49:36;;;;;;;0.20;0.20;;;17.70;99.90;;;;;;4816774;29;20046;-83
2023/08/06 08:52:06;;;;;;;0.20;0.20;;;17.80;99.90;;;;;;4820906;29;20058;-82
2023/08/06 08:54:34;;;;;;;0.20;0.20;;;17.80;99.90;;;;;;4817069;29;20059;-82
2023/08/06 08:56:59;;;;;;;0.20;0.20;;;17.90;99.90;;;;;;4810937;29;20065;-82
2023/08/06 08:59:26;;;;;;;0.20;0.20;;;17.90;99.90;;;;;;4819120;29;20034;-82
2023/08/06 09:01:53;;;;;;;0.20;0.20;;;18.00;99.90;;;;;;4810761;29;20054;-81
2023/08/06 09:04:20;;;;;;;0.20;0.20;;;18.00;99.90;;;;;;4815814;29;20844;-82
2023/08/06 09:06:49;;;;;;;0.20;0.20;;;18.00;99.90;;;;;;4816628;29;20122;-83
2023/08/06 09:09:26;;;;;;;0.20;0.20;;;18.10;99.90;;;;;;4812375;29;20072;-81
2023/08/06 09:11:52;;;;;;;0.20;0.20;;;18.10;99.90;;;;;;4816035;29;20050;-82
2023/08/06 09:14:18;;;;;;;0.20;0.20;;;18.10;99.90;;;;;;4813730;29;20539;-82
2023/08/06 09:16:44;;;;;;;0.20;0.20;;;18.20;99.90;;;;;;4819528;29;20058;-82
2023/08/06 09:19:15;;;;;;;0.20;0.20;;;18.20;99.90;;;;;;4825436;29;20102;-82
2023/08/06 09:21:41;;;;;;;0.20;0.20;;;18.20;99.90;;;;;;4818172;29;20089;-82
2023/08/06 09:24:11;;;;;;;0.20;0.20;;;18.30;99.90;;;;;;4814855;29;20119;-82
2023/08/06 09:26:42;;;;;;;0.20;0.20;;;18.20;99.90;;;;;;4814584;29;20472;-82
2023/08/06 09:29:11;;;;;;;0.20;0.20;;;18.30;99.90;;;;;;4816424;29;20077;-83
2023/08/06 09:31:41;;;;;;;0.20;0.20;;;18.40;99.90;;;;;;4806842;29;20336;-82
2023/08/06 09:34:30;;;;;;;0.20;0.20;;;18.50;99.90;;;;;;4812725;29;20506;-83
2023/08/06 09:36:56;;;;;;;0.20;0.20;;;18.50;99.90;;;;;;4812058;29;20050;-82
2023/08/06 09:39:27;;;;;;;0.20;0.20;;;18.50;99.90;;;;;;4798530;29;20575;-82
2023/08/06 09:42:03;;;;;;;0.20;0.20;;;18.60;99.90;;;;;;4816611;29;20505;-82
2023/08/06 09:44:31;;;;;;;0.20;0.20;;;18.60;99.90;;;;;;4811421;29;20091;-84
2023/08/06 09:47:02;;;;;;;0.20;0.20;;;18.60;99.90;;;;;;4816517;29;20042;-84
2023/08/06 09:49:36;;;;;;;0.20;0.20;;;18.60;99.90;;;;;;4812890;29;20177;-83
2023/08/06 09:52:02;;;;;;;0.20;0.20;;;18.70;99.90;;;;;;4810060;29;20641;-83
2023/08/06 09:54:30;;;;;;;0.20;0.20;;;18.80;99.90;;;;;;4813291;29;20054;-83
2023/08/06 09:56:56;;;;;;;0.20;0.20;;;18.90;99.90;;;;;;4818138;29;20034;-83
2023/08/06 09:59:23;;;;;;;0.20;0.20;;;18.90;99.90;;;;;;4814758;29;20048;-83
2023/08/06 10:01:50;;;;;;;0.20;0.20;;;19.00;99.90;;;;;;4813005;29;20111;-83
2023/08/06 10:04:16;;;;;;;0.20;0.20;;;19.00;99.90;;;;;;4815400;29;21628;-83
2023/08/06 10:06:42;;;;;;;0.20;0.20;;;19.00;99.90;;;;;;4814877;29;20157;-82
2023/08/06 10:09:09;;;;;;;0.17;0.17;;;19.00;99.90;;;;;;4817150;29;20591;-82
2023/08/06 10:11:37;;;;;;;0.20;0.20;;;19.10;99.90;;;;;;4821328;29;20129;-82
2023/08/06 10:14:08;;;;;;;0.20;0.20;;;19.10;99.90;;;;;;4820199;29;20125;-81
2023/08/06 10:16:36;;;;;;;0.20;0.20;;;19.20;99.90;;;;;;4816773;29;20046;-81
2023/08/06 10:19:04;;;;;;;0.20;0.20;;;19.30;99.90;;;;;;4819921;29;20054;-81
2023/08/06 10:21:31;;;;;;;0.20;0.20;;;19.30;99.90;;;;;;4821530;29;20050;-82
2023/08/06 10:23:57;;;;;;;0.20;0.20;;;19.40;99.90;;;;;;4816205;29;20055;-82
2023/08/06 10:26:30;;;;;;;0.20;0.20;;;19.40;99.90;;;;;;4819011;29;20054;-81
2023/08/06 10:28:57;;;;;;;0.20;0.20;;;19.50;99.90;;;;;;4820378;29;20115;-81
2023/08/06 10:32:07;;;;;;;0.20;0.20;;;19.50;99.90;;;;;;4813794;29;20085;-82
2023/08/06 10:34:58;;;;;;;0.20;0.20;;;19.50;99.90;;;;;;4812992;29;20058;-81
2023/08/06 10:37:36;;;;;;;0.20;0.20;;;19.50;99.90;;;;;;4820604;29;20121;-82
2023/08/06 10:40:02;;;;;;;0.20;0.20;;;19.50;99.90;;;;;;4811654;29;20067;-82
2023/08/06 10:42:29;;;;;;;0.20;0.20;;;19.50;99.90;;;;;;4800161;29;20061;-81
2023/08/06 10:45:15;;;;;;;0.20;0.20;;;19.60;99.90;;;;;;4815039;29;20073;-82
2023/08/06 10:47:42;;;;;;;0.20;0.20;;;19.60;99.90;;;;;;4819390;29;20054;-80
2023/08/06 10:50:13;;;;;;;0.20;0.20;;;19.60;99.90;;;;;;4810824;29;20045;-80
2023/08/06 10:52:39;;;;;;;0.20;0.20;;;19.70;99.90;;;;;;4814805;29;20053;-80
2023/08/06 10:55:05;;;;;;;0.20;0.20;;;19.70;99.90;;;;;;4815521;29;20531;-80
2023/08/06 10:57:31;;;;;;;0.10;0.10;;;19.70;99.90;;;;;;4812224;29;20440;-79
2023/08/06 10:59:57;;;;;;;0.20;0.20;;;19.80;99.90;;;;;;4817202;29;20054;-81
2023/08/06 11:02:23;;;;;;;0.20;0.20;;;19.90;99.90;;;;;;4810618;29;20483;-81
2023/08/06 11:04:49;;;;;;;0.20;0.20;;;19.90;99.90;;;;;;4817584;29;20085;-81
2023/08/06 11:07:15;;;;;;;0.20;0.20;;;20.00;99.90;;;;;;4819756;29;20502;-80
2023/08/06 11:09:40;;;;;;;0.20;0.20;;;20.10;99.90;;;;;;4820134;29;20050;-81
2023/08/06 11:12:17;;;;;;;0.20;0.20;;;20.20;99.90;;;;;;4818370;29;20138;-81
2023/08/06 11:14:50;;;;;;;0.20;0.20;;;20.20;99.90;;;;;;4814727;29;20046;-80
2023/08/06 11:17:15;;;;;;;0.20;0.20;;;20.20;99.90;;;;;;4798299;29;20054;-80
2023/08/06 11:19:41;;;;;;;0.20;0.20;;;20.30;99.90;;;;;;4812758;29;20046;-81
2023/08/06 11:22:07;;;;;;;0.20;0.20;;;20.30;99.90;;;;;;4813465;29;20051;-81
2023/08/06 11:24:33;;;;;;;0.20;0.20;;;20.30;99.90;;;;;;4811347;29;20057;-81
2023/08/06 11:26:58;;;;;;;0.20;0.20;;;20.30;99.90;;;;;;4814007;29;20042;-81
2023/08/06 11:29:24;;;;;;;0.20;0.20;;;20.30;99.90;;;;;;4812476;29;20673;-80
2023/08/06 11:31:50;;;;;;;0.20;0.20;;;20.30;99.90;;;;;;4813226;29;20510;-81
2023/08/06 11:34:16;;;;;;;0.20;0.20;;;20.20;99.90;;;;;;4814739;29;20078;-81
2023/08/06 11:36:42;;;;;;;0.20;0.20;;;20.10;99.90;;;;;;4797247;29;20468;-80
2023/08/06 11:39:09;;;;;;;0.20;0.20;;;20.10;99.90;;;;;;4809550;29;20058;-81
2023/08/06 11:41:37;;;;;;;0.20;0.20;;;20.10;99.90;;;;;;4820606;29;20050;-81
2023/08/06 11:44:03;;;;;;;0.20;0.20;;;20.10;99.90;;;;;;4814109;29;20050;-81
2023/08/06 11:46:49;;;;;;;0.20;0.20;;;20.20;99.90;;;;;;4822140;29;20091;-81
2023/08/06 11:49:14;;;;;;;0.10;0.10;;;20.20;99.90;;;;;;4821828;29;20551;-82
2023/08/06 11:51:40;;;;;;;0.20;0.20;;;20.30;99.90;;;;;;4819481;29;20137;-82
2023/08/06 11:54:07;;;;;;;0.20;0.20;;;20.30;99.90;;;;;;4820044;29;20050;-82
2023/08/06 11:56:32;;;;;;;0.20;0.20;;;20.30;99.90;;;;;;4817863;29;20053;-82
2023/08/06 11:58:58;;;;;;;0.20;0.20;;;20.40;99.90;;;;;;4818359;29;20054;-82
2023/08/06 12:01:25;;;;;;;0.20;0.20;;;20.50;99.90;;;;;;4821970;29;20047;-80
2023/08/06 12:03:51;;;;;;;0.20;0.20;;;20.50;99.90;;;;;;4808089;29;20058;-81
2023/08/06 12:06:16;;;;;;;0.20;0.20;;;20.50;99.90;;;;;;4814888;29;20061;-81
2023/08/06 12:08:42;;;;;;;0.20;0.20;;;20.50;99.90;;;;;;4811379;29;20050;-81
2023/08/06 12:11:08;;;;;;;0.20;0.20;;;20.50;99.90;;;;;;4818808;29;20381;-81
2023/08/06 12:13:34;;;;;;;0.20;0.20;;;20.50;99.90;;;;;;4811068;29;20042;-82
2023/08/06 12:16:00;;;;;;;0.20;0.20;;;20.60;99.90;;;;;;4820439;29;20053;-82
2023/08/06 12:18:25;;;;;;;0.20;0.20;;;20.60;99.90;;;;;;4815766;29;20046;-80
2023/08/06 12:20:51;;;;;;;0.10;0.10;;;20.60;99.90;;;;;;4814107;29;20122;-81
2023/08/06 12:23:17;;;;;;;0.20;0.20;;;20.60;99.90;;;;;;4814090;29;20072;-81
2023/08/06 12:25:44;;;;;;;0.20;0.20;;;20.60;99.90;;;;;;4818725;29;20126;-81
2023/08/06 12:28:10;;;;;;;0.20;0.20;;;20.70;99.90;;;;;;4815443;29;20694;-81
2023/08/06 12:30:36;;;;;;;0.20;0.20;;;20.80;99.90;;;;;;4816354;29;20058;-81
2023/08/06 12:33:01;;;;;;;0.20;0.20;;;20.90;99.90;;;;;;4814455;29;20046;-80
2023/08/06 12:35:27;;;;;;;0.20;0.20;;;21.00;99.90;;;;;;4817016;29;20509;-80
2023/08/06 12:37:54;;;;;;;0.20;0.20;;;21.20;99.90;;;;;;4817370;29;20051;-80
2023/08/06 12:40:20;;;;;;;0.20;0.20;;;21.20;99.90;;;;;;4815050;29;20419;-79
2023/08/06 12:42:46;;;;;;;0.20;0.20;;;21.40;99.90;;;;;;4814009;29;20062;-80
2023/08/06 12:45:12;;;;;;;0.20;0.20;;;21.50;99.90;;;;;;4816855;29;20051;-80
2023/08/06 12:47:38;;;;;;;0.20;0.20;;;21.60;99.90;;;;;;4817096;29;20495;-81